Time;durP1;ratioP1;P1;durP2;ratioP2;P2;SDS_P1;SDS_P2;PMS_P1;PMS_P2;Temp;Humidity;BMP_temperature;BMP_pressure;BME280_temperature;BME280_humidity;BME280_pressure;Samples;Min_cycle;Max_cycle;Signal;HPM_P1;HPM_P2
2022/05/29 00:00:09;;;;;;;2.13;0.93;;;;;;;20.87;46.81;101714.84;5097054;28;20509;-58
2022/05/29 00:02:35;;;;;;;2.28;0.82;;;;;;;20.85;46.46;101716.84;5106990;28;20043;-56
2022/05/29 00:05:00;;;;;;;1.80;0.80;;;;;;;20.81;46.91;101714.63;5089326;28;20028;-59
2022/05/29 00:07:25;;;;;;;2.22;1.00;;;;;;;20.82;46.47;101706.38;5104637;28;20074;-59
2022/05/29 00:09:54;;;;;;;1.23;0.70;;;;;;;20.79;46.41;101697.75;5104975;28;20024;-59
2022/05/29 00:12:21;;;;;;;2.05;0.82;;;;;;;20.78;46.19;101698.75;5107288;28;20032;-59
2022/05/29 00:14:48;;;;;;;1.42;0.88;;;;;;;20.85;46.33;101710.59;5107989;28;20042;-59
2022/05/29 00:17:14;;;;;;;1.38;0.90;;;;;;;20.84;46.48;101709.75;5121354;28;20020;-59
2022/05/29 00:19:40;;;;;;;1.40;0.70;;;;;;;20.84;46.01;101709.75;5107106;28;20020;-59
2022/05/29 00:22:06;;;;;;;2.05;0.90;;;;;;;20.83;46.15;101705.34;5088431;28;20027;-58
2022/05/29 00:24:31;;;;;;;1.85;0.93;;;;;;;20.69;46.28;101678.97;5093017;28;20073;-58
2022/05/29 00:26:56;;;;;;;1.80;0.70;;;;;;;20.83;46.26;101702.66;5092886;28;20061;-59
2022/05/29 00:29:22;;;;;;;2.05;0.57;;;;;;;20.83;46.27;101696.41;5114821;28;20019;-59
2022/05/29 00:31:47;;;;;;;1.15;0.70;;;;;;;20.82;45.88;101705.53;5120354;28;20513;-59
2022/05/29 00:34:13;;;;;;;1.30;0.80;;;;;;;20.80;46.17;101694.03;5115062;28;20087;-59
2022/05/29 00:36:40;;;;;;;0.75;0.70;;;;;;;20.80;45.83;101702.97;5124914;28;20464;-59
2022/05/29 00:39:10;;;;;;;1.90;1.00;;;;;;;20.81;45.92;101701.13;5127426;28;20052;-58
2022/05/29 00:41:38;;;;;;;2.03;0.93;;;;;;;20.76;46.02;101690.78;5110387;28;20039;-59
2022/05/29 00:44:16;;;;;;;1.40;0.75;;;;;;;20.80;45.83;101694.03;5116058;28;20035;-59
2022/05/29 00:47:18;;;;;;;0.95;0.68;;;;;;;20.80;45.92;101702.97;5110591;28;20032;-59
2022/05/29 00:49:44;;;;;;;1.95;0.77;;;;;;;20.79;45.69;101692.34;5065090;28;20065;-58
2022/05/29 00:52:28;;;;;;;0.95;0.63;;;;;;;20.78;45.55;101688.78;5111363;28;20031;-60
2022/05/29 00:55:06;;;;;;;2.50;0.93;;;;;;;20.77;45.92;101692.47;5109490;28;20024;-60
2022/05/29 00:57:34;;;;;;;1.98;1.17;;;;;;;20.74;45.77;101686.56;5101407;28;20460;-59
2022/05/29 01:00:09;;;;;;;1.48;0.77;;;;;;;20.76;45.69;101679.13;5088559;28;20028;-59
2022/05/29 01:02:35;;;;;;;1.80;0.90;;;;;;;20.77;45.77;101683.53;5113544;28;20015;-59
2022/05/29 01:05:03;;;;;;;2.30;0.88;;;;;;;20.76;45.75;101677.28;5113987;28;20024;-58
2022/05/29 01:07:29;;;;;;;1.05;0.60;;;;;;;20.71;45.63;101671.53;5102441;28;20030;-58
2022/05/29 01:09:54;;;;;;;1.33;0.95;;;;;;;20.69;45.66;101671.69;5130616;27;20016;-59
2022/05/29 01:12:44;;;;;;;0.90;0.60;;;;;;;20.75;45.38;101672.03;5112020;28;20034;-59
2022/05/29 01:15:33;;;;;;;0.75;0.60;;;;;;;20.75;45.72;101672.03;5114437;28;20027;-59
2022/05/29 01:18:07;;;;;;;1.75;1.00;;;;;;;20.74;45.55;101664.97;5091920;28;20031;-58
2022/05/29 01:20:54;;;;;;;2.10;0.70;;;;;;;20.73;45.72;101664.13;5119984;28;20050;-59
2022/05/29 01:23:48;;;;;;;2.20;0.73;;;;;;;20.71;45.67;101656.16;5116971;28;20071;-60
2022/05/29 01:26:22;;;;;;;1.33;0.80;;;;;;;20.71;45.71;101660.72;5102522;28;20047;-59
2022/05/29 01:28:56;;;;;;;1.35;0.70;;;;;;;20.71;45.40;101658.00;5119045;28;20612;-59
2022/05/29 01:31:50;;;;;;;1.25;0.80;;;;;;;20.71;45.48;101660.72;5089404;28;20042;-59
2022/05/29 01:34:24;;;;;;;1.02;0.60;;;;;;;20.68;45.33;101653.75;5101786;28;20024;-59
2022/05/29 01:37:08;;;;;;;1.52;0.80;;;;;;;20.69;45.67;101650.06;5095617;28;20047;-59
2022/05/29 01:39:51;;;;;;;1.30;1.02;;;;;;;20.63;45.46;101639.06;5093974;28;20048;-59
2022/05/29 01:42:34;;;;;;;1.35;0.63;;;;;;;20.68;45.21;101648.34;5097072;28;20472;-59
2022/05/29 01:45:55;;;;;;;1.15;0.77;;;;;;;20.56;45.10;101625.38;5120402;28;20024;-59
2022/05/29 01:48:29;;;;;;;1.65;0.90;;;;;;;20.66;45.03;101647.69;5002600;28;20144;-60
2022/05/29 01:50:58;;;;;;;0.90;0.50;;;;;;;20.67;45.04;101641.25;5003590;28;20072;-58
2022/05/29 01:53:28;;;;;;;1.40;0.80;;;;;;;20.65;45.40;101632.50;5006719;28;20660;-59
2022/05/29 01:55:56;;;;;;;2.35;0.73;;;;;;;20.65;45.44;101626.25;5012647;28;20054;-59
2022/05/29 01:58:30;;;;;;;1.23;0.88;;;;;;;20.63;45.38;101626.38;5003151;28;20086;-59
2022/05/29 02:00:59;;;;;;;1.35;0.70;;;;;;;20.64;45.57;101622.66;5013258;28;20060;-59
2022/05/29 02:03:32;;;;;;;;;;;;;;;20.63;45.27;101626.38;5020224;28;20058;-59
2022/05/29 02:06:05;;;;;;;0.90;0.60;;;;;;;20.63;45.52;101626.38;5018126;28;20385;-60
2022/05/29 02:08:36;;;;;;;2.05;0.52;;;;;;;20.63;45.26;101620.13;5029506;28;20171;-59
2022/05/29 02:11:07;;;;;;;2.60;0.85;;;;;;;20.49;45.24;101597.28;5022808;28;20245;-59
2022/05/29 02:13:50;;;;;;;5.35;0.90;;;;;;;20.61;45.56;101612.22;5008484;28;20026;-60
2022/05/29 02:16:22;;;;;;;1.52;0.77;;;;;;;20.59;45.33;101607.97;5002689;28;20026;-59
2022/05/29 02:18:53;;;;;;;1.60;0.80;;;;;;;20.62;45.21;101610.34;5001186;28;20037;-59
2022/05/29 02:21:22;;;;;;;1.10;0.70;;;;;;;20.60;45.35;101607.81;4996308;28;20050;-59
2022/05/29 02:23:53;;;;;;;1.40;0.65;;;;;;;20.61;45.43;101614.06;5016821;28;20059;-59
2022/05/29 02:26:22;;;;;;;2.03;0.80;;;;;;;20.61;45.22;101614.06;5085288;28;20036;-60
2022/05/29 02:28:52;;;;;;;1.40;0.60;;;;;;;20.59;45.48;101610.66;5100899;28;20050;-59
2022/05/29 02:31:20;;;;;;;;;;;;;;;20.59;45.35;101606.09;5103525;28;20024;-60
2022/05/29 02:34:12;;;;;;;1.40;0.77;;;;;;;20.59;45.34;101603.41;5114340;28;19908;-59
2022/05/29 02:36:52;;;;;;;1.15;0.90;;;;;;;20.58;45.17;101599.00;5085992;28;20458;-59
2022/05/29 02:39:23;;;;;;;1.70;0.70;;;;;;;20.49;45.12;101589.19;5092789;28;20071;-59
2022/05/29 02:41:55;;;;;;;1.95;1.00;;;;;;;20.54;45.21;101594.09;5111444;28;20020;-60
2022/05/29 02:44:35;;;;;;;1.63;0.70;;;;;;;20.57;45.42;101593.78;5092882;28;20073;-59
2022/05/29 02:47:38;;;;;;;0.90;0.68;;;;;;;20.57;45.11;101599.19;5090712;28;20024;-59
2022/05/29 02:50:29;;;;;;;1.40;0.73;;;;;;;20.56;45.04;101592.94;5117292;28;20027;-59
2022/05/29 02:52:57;;;;;;;1.13;0.73;;;;;;;20.54;45.25;101589.53;5110256;28;20059;-59
2022/05/29 02:55:22;;;;;;;0.85;0.60;;;;;;;20.54;45.05;101586.00;5100411;28;20062;-59
2022/05/29 02:57:50;;;;;;;1.38;0.70;;;;;;;20.55;45.18;101588.53;5104394;28;20679;-60
2022/05/29 03:00:16;;;;;;;1.58;0.55;;;;;;;20.54;45.25;101584.13;5100673;28;20016;-59
2022/05/29 03:03:28;;;;;;;0.63;0.50;;;;;;;20.55;45.02;101576.88;5114636;28;20460;-59
2022/05/29 03:06:12;;;;;;;0.80;0.40;;;;;;;20.55;45.11;101574.19;5085817;28;20081;-59
2022/05/29 03:09:03;;;;;;;1.45;0.60;;;;;;;20.54;45.29;101576.03;5110826;28;20024;-60
2022/05/29 03:11:38;;;;;;;1.00;0.60;;;;;;;20.46;45.03;101560.59;5104158;28;20024;-59
2022/05/29 03:14:27;;;;;;;0.60;0.55;;;;;;;20.53;44.88;101570.81;5104024;28;20043;-59
2022/05/29 03:17:14;;;;;;;1.63;0.80;;;;;;;20.52;45.19;101580.78;5098115;28;20559;-60
2022/05/29 03:19:54;;;;;;;0.88;0.63;;;;;;;20.52;45.35;101577.19;5089911;28;20031;-59
2022/05/29 03:22:32;;;;;;;1.38;0.70;;;;;;;20.53;44.94;101573.50;5103542;28;20019;-60
2022/05/29 03:25:15;;;;;;;0.82;0.50;;;;;;;20.51;45.10;101575.50;5086161;28;20039;-60
2022/05/29 03:27:45;;;;;;;1.42;0.88;;;;;;;20.46;45.10;101568.72;5103883;28;20024;-59
2022/05/29 03:30:35;;;;;;;1.85;0.60;;;;;;;20.50;44.94;101569.25;5099086;28;20019;-59
2022/05/29 03:33:04;;;;;;;1.25;0.70;;;;;;;20.50;45.20;101573.81;5117175;28;20073;-59
2022/05/29 03:35:36;;;;;;;;;;;;;;;20.49;45.05;101574.84;5096987;28;20019;-59
2022/05/29 03:38:04;;;;;;;0.95;0.70;;;;;;;20.46;44.90;101563.31;5091030;28;19954;-59
2022/05/29 03:40:31;;;;;;;1.73;0.65;;;;;;;20.46;45.09;101562.47;5114382;28;20042;-59
2022/05/29 03:42:57;;;;;;;1.08;0.73;;;;;;;20.44;45.08;101565.34;5098940;28;20026;-59
2022/05/29 03:45:23;;;;;;;1.48;1.10;;;;;;;20.40;45.25;101555.03;5111833;28;20023;-60
2022/05/29 03:47:48;;;;;;;1.40;0.75;;;;;;;20.46;44.85;101567.88;5109185;28;20066;-59
2022/05/29 03:50:16;;;;;;;1.48;0.70;;;;;;;20.46;45.04;101560.59;5118152;28;20027;-60
2022/05/29 03:52:42;;;;;;;0.88;0.70;;;;;;;20.46;45.17;101562.47;5115901;28;20032;-59
2022/05/29 03:55:08;;;;;;;0.85;0.80;;;;;;;20.44;45.16;101568.03;5109655;28;20520;-60
2022/05/29 03:57:33;;;;;;;1.20;0.60;;;;;;;20.45;44.91;101564.31;5113602;28;20040;-56
2022/05/29 03:59:59;;;;;;;1.90;0.68;;;;;;;20.44;45.01;101554.53;5105981;28;20077;-59
2022/05/29 04:02:24;;;;;;;1.73;0.80;;;;;;;20.45;44.71;101556.22;5115430;28;20032;-59
2022/05/29 04:04:49;;;;;;;1.75;0.75;;;;;;;20.43;44.72;101549.28;5117377;28;20027;-59
2022/05/29 04:07:14;;;;;;;0.95;0.60;;;;;;;20.44;45.12;101545.59;5109590;28;20036;-59
2022/05/29 04:12:23;;;;;;;1.10;0.65;;;;;;;20.43;45.08;101549.28;5117243;28;20102;-57
2022/05/29 04:14:49;;;;;;;1.52;0.60;;;;;;;20.42;44.71;101540.31;5092471;28;20023;-58
2022/05/29 04:17:17;;;;;;;1.33;0.73;;;;;;;20.43;45.04;101541.16;5110551;28;20035;-59
2022/05/29 04:19:44;;;;;;;0.98;0.68;;;;;;;20.42;45.05;101536.78;5103009;28;20024;-59
2022/05/29 04:22:13;;;;;;;1.02;0.68;;;;;;;20.41;45.05;101530.53;5103117;28;20087;-59
2022/05/29 04:24:38;;;;;;;2.17;0.90;;;;;;;20.41;44.99;101532.41;5107591;28;20051;-57
2022/05/29 04:27:04;;;;;;;2.08;0.57;;;;;;;20.40;45.00;101519.91;5113381;28;20339;-57
2022/05/29 04:29:29;;;;;;;0.73;0.60;;;;;;;20.40;45.03;101526.16;5103436;28;20101;-58
2022/05/29 04:34:38;;;;;;;1.38;0.50;;;;;;;20.39;44.86;101521.78;5106519;28;20031;-58
2022/05/29 04:37:04;;;;;;;1.52;0.70;;;;;;;20.40;45.08;101538.81;5113531;28;20111;-58
2022/05/29 04:39:32;;;;;;;1.63;0.73;;;;;;;20.39;45.08;101537.97;5104788;28;20483;-58
2022/05/29 04:41:59;;;;;;;0.98;0.50;;;;;;;20.39;44.80;101534.41;5115369;28;20028;-59
2022/05/29 04:44:24;;;;;;;0.93;0.80;;;;;;;20.38;45.25;101535.41;5117470;28;20080;-58
2022/05/29 04:46:49;;;;;;;1.98;0.80;;;;;;;20.37;45.28;101539.13;5109179;28;20023;-58
2022/05/29 04:49:14;;;;;;;0.75;0.55;;;;;;;20.38;45.21;101536.25;5110031;28;20100;-59
2022/05/29 04:51:39;;;;;;;1.85;0.80;;;;;;;20.38;45.40;101538.97;5117233;28;20606;-58
2022/05/29 04:54:05;;;;;;;1.58;0.75;;;;;;;20.38;45.18;101538.13;5115380;28;20020;-58
2022/05/29 04:56:30;;;;;;;1.27;0.63;;;;;;;20.38;45.53;101543.53;5112908;28;20089;-58
2022/05/29 04:58:55;;;;;;;1.05;0.70;;;;;;;20.38;45.24;101533.56;5119561;28;20682;-58
2022/05/29 05:01:20;;;;;;;1.05;0.75;;;;;;;20.38;45.18;101530.03;5116190;28;20516;-59
2022/05/29 05:03:45;;;;;;;1.33;0.60;;;;;;;20.39;45.07;101537.09;5114388;28;20031;-59
2022/05/29 05:06:11;;;;;;;1.02;0.70;;;;;;;20.38;45.50;101536.25;5114197;28;20028;-58
2022/05/29 05:08:36;;;;;;;1.40;0.80;;;;;;;20.38;45.51;101535.41;5121583;28;20028;-58
2022/05/29 05:11:01;;;;;;;1.58;0.75;;;;;;;20.37;45.34;101526.47;5115786;28;20024;-59
2022/05/29 05:13:27;;;;;;;0.90;0.68;;;;;;;20.27;45.13;101522.22;5112056;28;20024;-59
2022/05/29 05:16:03;;;;;;;2.22;0.88;;;;;;;20.38;45.41;101532.72;5123462;28;20031;-59
2022/05/29 05:18:29;;;;;;;1.20;0.73;;;;;;;20.37;45.19;101529.19;5126060;28;20053;-58
2022/05/29 05:20:54;;;;;;;1.20;0.70;;;;;;;20.36;45.44;101527.50;5120164;28;20087;-58
2022/05/29 05:23:19;;;;;;;0.85;0.60;;;;;;;20.37;45.46;101522.94;5118868;28;20028;-58
2022/05/29 05:25:45;;;;;;;0.90;0.60;;;;;;;20.31;45.32;101510.09;5112532;28;20021;-59
2022/05/29 05:28:10;;;;;;;1.05;0.50;;;;;;;20.36;45.65;101527.50;5115868;28;20111;-59
2022/05/29 05:30:35;;;;;;;0.70;0.65;;;;;;;20.34;45.33;101515.16;5102434;28;20016;-60
2022/05/29 05:33:00;;;;;;;2.38;0.85;;;;;;;20.35;45.30;101517.72;5123938;28;20023;-58
2022/05/29 05:35:26;;;;;;;0.93;0.70;;;;;;;20.36;45.32;101532.06;5116139;28;20055;-58
2022/05/29 05:37:51;;;;;;;1.38;0.63;;;;;;;20.34;45.66;101525.94;5105752;28;20077;-58
2022/05/29 05:40:16;;;;;;;1.48;0.70;;;;;;;20.33;45.39;101530.50;5088007;28;20046;-59
2022/05/29 05:42:41;;;;;;;1.55;0.70;;;;;;;20.34;45.60;101525.94;5119433;28;20023;-58
2022/05/29 05:45:09;;;;;;;1.42;0.80;;;;;;;20.33;45.47;101525.09;5111930;28;20031;-58
2022/05/29 05:47:34;;;;;;;0.77;0.75;;;;;;;20.33;45.62;101525.09;5126248;28;20020;-59
2022/05/29 05:49:59;;;;;;;1.45;0.77;;;;;;;20.29;46.07;101517.50;5121581;28;20035;-57
2022/05/29 05:52:25;;;;;;;1.50;1.00;;;;;;;20.32;45.92;101525.28;5107721;28;20396;-58
2022/05/29 05:54:50;;;;;;;2.10;0.60;;;;;;;20.32;46.16;101519.88;5113676;28;20031;-58
2022/05/29 05:57:19;;;;;;;1.55;0.70;;;;;;;20.33;45.90;101521.56;5114508;28;20057;-58
2022/05/29 05:59:45;;;;;;;1.20;0.70;;;;;;;20.32;46.03;101517.19;5116897;28;20036;-58
2022/05/29 06:02:10;;;;;;;1.50;0.70;;;;;;;20.33;46.09;101521.56;5122415;28;20030;-59
2022/05/29 06:04:37;;;;;;;2.28;0.80;;;;;;;20.33;46.05;101525.09;5120451;28;20047;-59
2022/05/29 06:07:02;;;;;;;1.02;0.77;;;;;;;20.32;46.19;101523.44;5120289;28;20024;-58
2022/05/29 06:09:29;;;;;;;1.80;0.80;;;;;;;20.33;46.42;101526.97;5128999;27;20015;-58
2022/05/29 06:11:54;;;;;;;2.80;0.90;;;;;;;20.32;46.38;101530.69;5110769;28;20025;-58
2022/05/29 06:14:19;;;;;;;1.60;0.70;;;;;;;20.33;46.13;101533.22;5120420;28;20095;-58
2022/05/29 06:16:45;;;;;;;1.35;0.90;;;;;;;20.34;46.73;101525.94;5119052;28;20050;-58
2022/05/29 06:19:10;;;;;;;1.80;0.70;;;;;;;20.33;46.61;101532.38;5121740;28;20023;-57
2022/05/29 06:21:35;;;;;;;1.60;0.73;;;;;;;20.32;46.74;101531.53;5120615;28;20061;-59
2022/05/29 06:24:01;;;;;;;1.60;0.70;;;;;;;20.32;46.84;101536.94;5120514;28;20494;-59
2022/05/29 06:26:27;;;;;;;1.73;0.60;;;;;;;20.28;46.91;101526.63;5122317;28;20027;-58
2022/05/29 06:28:52;;;;;;;1.10;0.73;;;;;;;20.31;46.78;101539.81;5118825;28;20423;-59
2022/05/29 06:31:17;;;;;;;1.52;0.63;;;;;;;20.32;46.72;101534.22;5118123;28;20077;-59
2022/05/29 06:33:43;;;;;;;1.00;0.80;;;;;;;20.31;46.97;101527.13;5114521;28;20031;-59
2022/05/29 06:36:13;;;;;;;2.10;0.70;;;;;;;20.31;46.93;101532.53;5110578;28;20028;-58
2022/05/29 06:38:39;;;;;;;1.33;0.73;;;;;;;20.30;46.60;101536.22;5116376;28;20044;-58
2022/05/29 06:41:09;;;;;;;1.30;0.70;;;;;;;20.30;46.89;101525.44;5112893;28;20036;-59
2022/05/29 06:43:35;;;;;;;1.08;0.65;;;;;;;20.23;46.86;101517.16;5117443;28;20519;-59
2022/05/29 06:46:01;;;;;;;4.30;1.00;;;;;;;20.29;46.89;101531.00;5118362;28;20056;-59
2022/05/29 06:48:27;;;;;;;1.35;0.70;;;;;;;20.28;46.73;101526.63;5109820;28;20034;-57
2022/05/29 06:50:52;;;;;;;2.72;0.82;;;;;;;20.28;46.57;101532.84;5113958;28;20020;-58
2022/05/29 06:53:17;;;;;;;2.00;0.75;;;;;;;20.28;46.59;101522.06;5118259;28;20357;-58
2022/05/29 06:55:55;;;;;;;1.63;1.02;;;;;;;20.30;46.33;101532.69;5108154;28;20051;-57
2022/05/29 06:58:22;;;;;;;2.33;0.95;;;;;;;20.29;46.38;101531.84;5107134;28;20119;-58
2022/05/29 07:08:59;;;;;;;1.88;0.88;;;;;;;20.30;46.72;101525.44;5111117;27;20026;-53
2022/05/29 07:11:27;;;;;;;1.77;0.90;;;;;;;20.32;46.48;101519.88;5116942;28;20047;-57
2022/05/29 07:13:53;;;;;;;1.98;0.80;;;;;;;20.33;46.61;101518.88;5109691;28;20026;-57
2022/05/29 07:16:18;;;;;;;1.80;1.02;;;;;;;20.33;46.56;101518.88;5117366;28;20517;-58
2022/05/29 07:18:44;;;;;;;2.92;0.82;;;;;;;20.36;46.53;101521.25;5109079;28;20043;-58
2022/05/29 07:21:09;;;;;;;1.35;0.70;;;;;;;20.36;46.37;101521.25;5115602;28;20036;-59
2022/05/29 07:23:35;;;;;;;2.75;0.82;;;;;;;20.36;46.65;101514.00;5118043;28;20035;-59
2022/05/29 07:26:01;;;;;;;1.60;0.73;;;;;;;20.34;46.25;101516.00;5110820;28;20057;-57
2022/05/29 07:28:26;;;;;;;1.95;0.90;;;;;;;20.35;46.57;101515.00;5111296;28;20031;-58
2022/05/29 07:30:52;;;;;;;1.77;0.73;;;;;;;20.27;46.64;101504.16;5118904;28;20088;-58
2022/05/29 07:33:18;;;;;;;1.27;0.90;;;;;;;20.35;46.67;101522.25;5116868;28;20394;-57
2022/05/29 07:35:44;;;;;;;1.42;0.60;;;;;;;20.34;46.38;101517.84;5116786;28;20070;-58
2022/05/29 07:38:10;;;;;;;0.52;0.50;;;;;;;20.34;46.16;101515.16;5109136;28;20048;-58
2022/05/29 07:40:35;;;;;;;1.83;0.85;;;;;;;20.32;46.42;101515.31;5113408;28;20347;-59
2022/05/29 07:43:19;;;;;;;1.33;0.70;;;;;;;20.30;46.33;101511.91;5117624;28;20050;-58
2022/05/29 07:46:00;;;;;;;1.35;0.70;;;;;;;20.33;46.36;101519.72;5114943;28;20035;-59
2022/05/29 07:48:27;;;;;;;1.63;0.70;;;;;;;20.34;46.68;101515.16;5109122;28;20027;-58
2022/05/29 07:50:53;;;;;;;2.40;0.80;;;;;;;20.34;46.28;101517.84;5112708;28;20020;-58
2022/05/29 07:53:18;;;;;;;2.25;0.70;;;;;;;20.34;46.58;101518.69;5117673;28;20038;-58
2022/05/29 07:55:44;;;;;;;2.42;0.70;;;;;;;20.28;46.33;101500.44;5115984;28;20107;-57
2022/05/29 07:58:11;;;;;;;0.90;0.60;;;;;;;20.33;46.14;101522.41;5117833;28;20039;-57
2022/05/29 08:00:38;;;;;;;2.83;0.98;;;;;;;20.34;46.67;101509.75;5111231;28;20030;-59
2022/05/29 08:03:04;;;;;;;3.15;1.05;;;;;;;20.34;46.19;101512.44;5109629;28;20019;-59
2022/05/29 08:05:31;;;;;;;2.40;1.00;;;;;;;20.34;46.66;101517.84;5085494;28;20054;-59
2022/05/29 08:07:57;;;;;;;3.80;1.00;;;;;;;20.35;46.47;101512.31;5106785;28;20474;-59
2022/05/29 08:10:23;;;;;;;1.88;0.90;;;;;;;20.34;46.70;101510.59;5095722;28;20481;-59
2022/05/29 08:12:48;;;;;;;1.95;0.82;;;;;;;20.31;46.27;101513.63;5106880;28;20035;-59
2022/05/29 08:15:14;;;;;;;1.95;0.85;;;;;;;20.34;46.42;101507.03;5107347;28;20032;-58
2022/05/29 08:17:40;;;;;;;1.80;0.90;;;;;;;20.34;46.48;101510.59;5110544;28;20084;-55
2022/05/29 08:20:06;;;;;;;2.03;0.70;;;;;;;20.33;46.52;101508.06;5103253;28;20024;-59
2022/05/29 08:22:31;;;;;;;2.22;0.90;;;;;;;20.33;46.55;101503.50;5102733;28;20028;-58
2022/05/29 08:30:37;;;;;;;2.05;0.90;;;;;;;20.26;46.78;101502.47;5116393;28;20098;-59
2022/05/29 08:33:04;;;;;;;1.50;0.85;;;;;;;20.31;46.57;101510.94;5121016;28;20028;-58
2022/05/29 08:35:29;;;;;;;1.65;0.85;;;;;;;20.30;46.74;101509.22;5116090;27;20031;-58
2022/05/29 08:37:55;;;;;;;1.48;0.80;;;;;;;20.26;46.93;101505.16;5143723;27;20041;-58
2022/05/29 08:40:21;;;;;;;1.13;0.60;;;;;;;20.30;46.86;101511.09;5119553;28;20035;-58
2022/05/29 08:42:46;;;;;;;3.53;0.95;;;;;;;20.30;47.02;101506.53;5112455;28;20039;-58
2022/05/29 08:45:14;;;;;;;2.10;0.80;;;;;;;20.30;46.66;101506.53;5100546;28;20027;-60
2022/05/29 08:47:41;;;;;;;2.97;1.10;;;;;;;20.32;46.74;101500.97;5113757;28;20431;-57
2022/05/29 08:50:10;;;;;;;2.03;0.80;;;;;;;20.31;46.88;101497.44;5121320;28;20024;-58
2022/05/29 08:52:47;;;;;;;1.60;0.80;;;;;;;20.32;46.90;101506.38;5099663;28;20016;-58
2022/05/29 08:55:26;;;;;;;2.65;1.15;;;;;;;20.32;47.06;101496.41;5094676;28;20045;-59
2022/05/29 08:58:09;;;;;;;1.77;0.80;;;;;;;20.33;46.82;101502.66;5100346;28;20079;-58
2022/05/29 09:00:49;;;;;;;2.58;0.73;;;;;;;20.32;46.95;101499.13;5094070;28;20024;-58
2022/05/29 09:03:31;;;;;;;2.50;0.90;;;;;;;20.30;47.09;101494.88;5102022;28;20138;-59
2022/05/29 09:06:12;;;;;;;1.77;1.08;;;;;;;20.32;47.15;101496.41;5098359;28;20019;-59
2022/05/29 09:08:43;;;;;;;3.15;1.02;;;;;;;20.32;46.93;101499.13;5094070;28;20114;-58
2022/05/29 09:11:16;;;;;;;3.08;0.80;;;;;;;20.33;45.98;101498.09;5098695;28;20020;-58
2022/05/29 09:13:47;;;;;;;2.55;1.00;;;;;;;20.30;46.03;101484.06;5102340;28;20107;-58
2022/05/29 09:16:15;;;;;;;2.25;0.70;;;;;;;20.37;45.78;101496.78;5081410;27;20027;-57
2022/05/29 09:18:43;;;;;;;1.80;1.00;;;;;;;20.37;45.76;101494.06;5121638;28;20051;-57
2022/05/29 09:21:13;;;;;;;3.83;1.27;;;;;;;20.36;45.59;101496.94;5106494;28;20036;-57
2022/05/29 09:24:03;;;;;;;2.58;1.00;;;;;;;20.32;45.87;101493.72;5105912;28;20027;-58
2022/05/29 09:26:33;;;;;;;1.55;0.80;;;;;;;20.36;45.69;101496.94;5095538;28;20161;-56
2022/05/29 09:28:58;;;;;;;2.60;0.80;;;;;;;20.37;45.70;101498.63;5088038;28;20051;-57
2022/05/29 09:31:25;;;;;;;2.28;0.82;;;;;;;20.37;45.66;101498.63;5092099;28;20023;-59
2022/05/29 09:33:51;;;;;;;1.70;0.95;;;;;;;20.31;45.44;101488.50;5097024;28;20400;-58
2022/05/29 09:36:39;;;;;;;2.75;0.85;;;;;;;20.39;45.13;101493.88;5111067;28;20049;-57
2022/05/29 09:39:10;;;;;;;1.67;0.93;;;;;;;20.39;45.05;101494.75;5111130;28;20051;-57
2022/05/29 09:41:46;;;;;;;2.67;0.90;;;;;;;20.35;45.45;101495.25;5105099;28;20035;-57
2022/05/29 09:44:14;;;;;;;1.08;0.70;;;;;;;20.40;45.39;101501.84;5113730;28;20165;-57
2022/05/29 09:46:42;;;;;;;1.67;0.93;;;;;;;20.41;44.93;101500.00;5117439;28;20031;-58
2022/05/29 09:52:06;;;;;;;2.17;1.00;;;;;;;20.42;45.26;101493.56;5112174;28;20035;-58
2022/05/29 09:54:43;;;;;;;2.10;0.80;;;;;;;20.43;44.87;101503.34;5117792;28;20015;-57
2022/05/29 09:57:41;;;;;;;2.22;0.98;;;;;;;20.42;44.93;101494.41;5111933;28;20023;-57
2022/05/29 10:00:12;;;;;;;1.85;0.80;;;;;;;20.41;44.86;101486.47;5063884;28;20544;-59
2022/05/29 10:02:39;;;;;;;1.30;0.80;;;;;;;20.43;44.78;101487.16;5113515;28;20028;-57
2022/05/29 10:05:08;;;;;;;2.47;0.90;;;;;;;20.44;44.83;101478.06;5097426;28;20037;-58
2022/05/29 10:07:42;;;;;;;1.70;1.15;;;;;;;20.45;44.65;101493.25;5094227;28;20062;-58
2022/05/29 10:10:11;;;;;;;4.03;1.30;;;;;;;20.46;44.75;101484.97;5104204;28;20024;-58
2022/05/29 10:12:47;;;;;;;2.05;0.77;;;;;;;20.47;44.78;101488.50;5118597;28;20054;-58
2022/05/29 10:15:26;;;;;;;2.17;0.73;;;;;;;20.46;44.78;101481.44;5114896;28;20058;-58
2022/05/29 10:17:58;;;;;;;2.35;0.80;;;;;;;20.45;44.73;101474.34;5104887;28;20022;-59
2022/05/29 10:20:32;;;;;;;2.10;0.70;;;;;;;20.50;45.01;101479.28;5115673;28;20052;-58
2022/05/29 10:22:59;;;;;;;3.38;0.88;;;;;;;20.43;45.14;101474.53;5098783;28;20083;-59
2022/05/29 10:25:27;;;;;;;3.78;0.80;;;;;;;20.47;45.16;101481.28;5092406;28;20031;-58
2022/05/29 10:27:55;;;;;;;6.50;1.27;;;;;;;20.50;45.18;101479.28;5111296;28;20075;-58
2022/05/29 10:30:41;;;;;;;3.22;1.05;;;;;;;20.49;45.57;101480.31;5087043;28;20016;-58
2022/05/29 10:33:13;;;;;;;3.15;0.80;;;;;;;20.48;45.43;101482.16;5092082;28;20087;-58
2022/05/29 10:35:40;;;;;;;3.83;1.40;;;;;;;20.46;45.57;101482.28;5107451;28;20024;-58
2022/05/29 10:38:24;;;;;;;2.83;1.05;;;;;;;20.45;45.66;101480.59;5071353;28;20043;-58
2022/05/29 10:40:52;;;;;;;3.47;1.05;;;;;;;20.44;45.67;101480.75;5105017;28;20024;-58
2022/05/29 10:43:39;;;;;;;2.73;1.07;;;;;;;20.44;45.63;101480.75;5104305;28;20042;-58
2022/05/29 10:46:12;;;;;;;5.22;0.95;;;;;;;20.41;45.61;101481.94;5104808;28;20024;-58
2022/05/29 10:48:41;;;;;;;4.68;0.80;;;;;;;20.42;45.91;101493.56;5092474;28;20096;-57
2022/05/29 10:51:15;;;;;;;2.35;0.80;;;;;;;20.42;46.08;101485.47;5106787;28;20491;-58
2022/05/29 10:54:04;;;;;;;3.55;0.95;;;;;;;20.42;45.88;101483.59;5072298;28;20024;-57
2022/05/29 10:56:48;;;;;;;1.30;0.80;;;;;;;20.41;46.04;101487.31;5086313;28;20028;-59
2022/05/29 10:59:40;;;;;;;4.57;1.02;;;;;;;20.42;45.57;101480.91;5106742;28;20028;-59
2022/05/29 11:05:27;;;;;;;4.30;1.02;;;;;;;20.42;45.85;101472.81;5120348;28;20115;-58
2022/05/29 11:08:19;;;;;;;7.05;1.45;;;;;;;20.40;46.25;101471.28;5122683;27;20038;-60
2022/05/29 11:11:22;;;;;;;2.92;0.95;;;;;;;20.44;46.32;101470.81;5106557;28;20044;-63
2022/05/29 11:14:03;;;;;;;2.08;0.90;;;;;;;20.45;46.13;101469.78;5101569;28;20605;-61
2022/05/29 11:16:42;;;;;;;2.65;1.10;;;;;;;20.46;46.12;101468.75;5127395;27;20011;-61
2022/05/29 11:19:16;;;;;;;2.17;0.90;;;;;;;20.46;45.81;101468.75;5087334;28;20031;-62
2022/05/29 11:22:12;;;;;;;3.28;1.25;;;;;;;20.46;45.87;101457.13;5107055;28;20487;-62
2022/05/29 11:24:50;;;;;;;2.70;1.20;;;;;;;20.45;45.72;101456.28;5106521;28;20049;-62
2022/05/29 11:28:04;;;;;;;6.38;1.17;;;;;;;20.45;45.45;101455.44;5108364;28;20039;-62
2022/05/29 11:30:32;;;;;;;3.58;1.05;;;;;;;20.46;45.90;101460.66;5108652;28;20107;-61
2022/05/29 11:33:20;;;;;;;5.53;1.20;;;;;;;20.44;45.72;101468.09;5109472;28;20833;-61
2022/05/29 11:36:00;;;;;;;3.55;0.95;;;;;;;20.43;45.70;101457.44;5098812;28;20035;-61
2022/05/29 11:38:46;;;;;;;5.93;1.00;;;;;;;20.43;46.21;101462.84;5088701;28;20040;-61
2022/05/29 11:41:16;;;;;;;3.85;0.90;;;;;;;20.43;46.00;101465.53;5118232;28;20023;-62
2022/05/29 11:43:45;;;;;;;5.55;1.25;;;;;;;20.43;46.30;101462.84;5111628;28;20020;-61
2022/05/29 11:52:28;;;;;;;3.22;1.40;;;;;;;20.45;46.69;101450.88;5103321;28;20546;-61
2022/05/29 11:55:13;;;;;;;3.40;1.30;;;;;;;20.46;47.11;101452.56;5106225;28;20016;-62
2022/05/29 11:57:50;;;;;;;6.30;1.25;;;;;;;20.47;47.05;101448.88;5094277;28;20047;-62
2022/05/29 12:00:18;;;;;;;8.93;1.40;;;;;;;20.49;46.93;101443.31;5085662;28;20020;-62
2022/05/29 12:02:51;;;;;;;5.47;1.67;;;;;;;20.51;46.98;101445.84;5084104;28;20513;-61
2022/05/29 12:05:40;;;;;;;2.55;0.90;;;;;;;20.52;47.14;101432.19;5103619;28;20039;-62
2022/05/29 12:08:19;;;;;;;5.25;1.20;;;;;;;20.53;47.01;101433.03;5096306;28;20107;-62
2022/05/29 12:10:52;;;;;;;2.25;0.90;;;;;;;20.54;46.83;101432.84;5085472;28;20031;-61
2022/05/29 12:13:18;;;;;;;4.57;1.15;;;;;;;20.56;46.93;101430.84;5103051;28;20059;-62
2022/05/29 12:15:46;;;;;;;2.92;1.00;;;;;;;20.42;47.47;101402.59;5117685;28;20024;-62
2022/05/29 12:18:15;;;;;;;4.90;1.20;;;;;;;20.58;47.04;101417.16;5089267;28;20169;-62